createdAt,value
2017-11-04T00:00:40.579Z,73.34
2017-11-04T00:03:18.475Z,73.09
2017-11-04T00:06:00.793Z,72.89
2017-11-04T00:08:42.184Z,73.34
2017-11-04T00:11:19.425Z,73.22
2017-11-04T00:13:56.724Z,73.45
2017-11-04T00:16:34.807Z,73.24
2017-11-04T00:19:11.280Z,73.18
2017-11-04T00:21:53.724Z,73.36
2017-11-04T00:24:30.131Z,73.42
2017-11-04T00:27:11.556Z,73.39
2017-11-04T00:29:50.447Z,73.19
2017-11-04T00:32:29.713Z,73.52
2017-11-04T00:35:06.811Z,73.48
2017-11-04T00:37:50.203Z,73.29
2017-11-04T00:40:27.182Z,73.28
2017-11-04T00:43:04.142Z,73.39
2017-11-04T00:45:42.747Z,72.92
2017-11-04T00:48:25.105Z,72.98
2017-11-04T00:51:01.959Z,72.59
2017-11-04T00:53:40.801Z,72.30
2017-11-04T00:56:21.811Z,72.16
2017-11-04T00:59:08.363Z,72.13
2017-11-04T01:01:45.196Z,71.82
2017-11-04T01:04:24.812Z,72.13
2017-11-04T01:07:03.816Z,71.84
2017-11-04T01:09:47.285Z,72.04
2017-11-04T01:12:25.862Z,72.28
2017-11-04T01:15:09.134Z,72.02
2017-11-04T01:17:46.524Z,72.10
2017-11-04T01:20:27.868Z,72.35
2017-11-04T01:23:04.714Z,71.96
2017-11-04T01:25:42.852Z,72.74
2017-11-04T01:28:20.644Z,72.01
2017-11-04T01:31:05.445Z,71.60
2017-11-04T01:33:50.740Z,71.68
2017-11-04T01:36:31.039Z,71.72
2017-11-04T01:39:07.428Z,71.73
2017-11-04T01:41:44.721Z,71.37
2017-11-04T01:44:25.576Z,71.75
2017-11-04T01:47:06.353Z,71.72
2017-11-04T01:49:54.404Z,71.68
2017-11-04T01:52:32.013Z,71.40
2017-11-04T01:55:12.987Z,70.94
2017-11-04T01:57:50.637Z,71.43
2017-11-04T02:00:27.255Z,71.50
2017-11-04T02:03:05.531Z,70.77
2017-11-04T02:05:43.260Z,71.30
2017-11-04T02:08:20.179Z,71.38
2017-11-04T02:10:57.114Z,71.39
2017-11-04T02:13:34.464Z,70.71
2017-11-04T02:16:19.886Z,70.61
2017-11-04T02:18:56.639Z,69.99
2017-11-04T02:21:35.756Z,70.13
2017-11-04T02:27:09.637Z,70.46
2017-11-04T02:29:41.868Z,70.22
2017-11-04T02:32:27.505Z,70.78
2017-11-04T02:35:05.548Z,71.10
2017-11-04T02:37:42.688Z,71.09
2017-11-04T02:40:20.026Z,70.71
2017-11-04T02:43:01.678Z,70.92
2017-11-04T02:45:38.592Z,71.34
2017-11-04T02:48:15.010Z,71.88
2017-11-04T02:50:54.497Z,71.88
2017-11-04T02:53:31.133Z,71.79
2017-11-04T02:56:08.353Z,71.73
2017-11-04T02:58:37.280Z,72.09
2017-11-04T03:01:19.028Z,72.31
2017-11-04T03:03:55.722Z,72.84
2017-11-04T03:06:35.578Z,72.81
2017-11-04T03:09:12.431Z,72.79
2017-11-04T03:11:51.800Z,72.98
2017-11-04T03:14:31.192Z,73.18
2017-11-04T03:17:13.619Z,73.46
2017-11-04T03:19:49.963Z,73.47
2017-11-04T03:22:28.171Z,73.37
2017-11-04T03:25:05.915Z,73.09
2017-11-04T03:27:48.450Z,73.66
2017-11-04T03:30:27.316Z,74.00
2017-11-04T03:33:15.485Z,73.80
2017-11-04T03:35:56.190Z,73.75
2017-11-04T03:38:35.484Z,73.84
2017-11-04T03:41:11.813Z,73.68
2017-11-04T03:46:34.183Z,73.75
2017-11-04T03:49:15.042Z,73.64
2017-11-04T03:51:51.512Z,73.58
2017-11-04T03:54:29.761Z,73.71
2017-11-04T03:57:12.544Z,73.82
2017-11-04T03:59:51.680Z,73.91
2017-11-04T04:02:28.844Z,74.15
2017-11-04T04:05:08.140Z,74.51
2017-11-04T04:07:44.879Z,74.31
2017-11-04T04:10:21.682Z,74.36
2017-11-04T04:12:58.074Z,74.62
2017-11-04T04:15:37.801Z,74.48
2017-11-04T04:18:17.260Z,74.67
2017-11-04T04:20:54.589Z,74.64
2017-11-04T04:23:32.662Z,74.75
2017-11-04T04:26:12.460Z,74.76
2017-11-04T04:28:49.688Z,74.53
2017-11-04T04:31:29.714Z,74.52
2017-11-04T04:34:00.725Z,74.29
2017-11-04T04:36:40.000Z,74.55
2017-11-04T04:39:16.712Z,74.85
2017-11-04T04:41:55.365Z,75.00
2017-11-04T04:44:32.119Z,75.41
2017-11-04T04:47:08.742Z,75.15
2017-11-04T04:49:45.239Z,75.50
2017-11-04T04:52:27.089Z,75.76
2017-11-04T04:55:03.641Z,76.19
2017-11-04T05:00:35.983Z,76.07
2017-11-04T05:03:14.428Z,76.31
2017-11-04T05:05:53.421Z,76.46
2017-11-04T05:08:30.094Z,76.55
2017-11-04T05:13:50.513Z,76.45
2017-11-04T05:16:35.964Z,76.46
2017-11-04T05:19:12.341Z,76.50
2017-11-04T05:21:51.595Z,76.84
2017-11-04T05:24:30.937Z,76.55
2017-11-04T05:27:21.800Z,76.67
2017-11-04T05:32:44.108Z,77.19
2017-11-04T05:35:13.173Z,77.03
2017-11-04T05:37:52.732Z,76.82
2017-11-04T05:40:29.284Z,76.79
2017-11-04T05:43:08.743Z,77.19
2017-11-04T05:45:54.432Z,77.30
2017-11-04T05:48:42.642Z,77.43
2017-11-04T05:53:34.844Z,78.30
2017-11-04T05:56:12.585Z,78.25
2017-11-04T05:58:49.226Z,78.33
2017-11-04T06:01:35.350Z,78.13
2017-11-04T06:04:11.709Z,78.31
2017-11-04T06:06:52.081Z,78.51
2017-11-04T06:09:31.156Z,78.06
2017-11-04T06:12:09.010Z,77.84
2017-11-04T06:14:55.789Z,77.56
2017-11-04T06:17:32.487Z,76.47
2017-11-04T06:20:17.460Z,75.55
2017-11-04T06:22:59.912Z,74.63
2017-11-04T06:25:43.353Z,74.03
2017-11-04T06:28:25.744Z,72.96
2017-11-04T06:31:05.127Z,72.12
2017-11-04T06:33:44.784Z,72.26
2017-11-04T06:36:21.115Z,71.57
2017-11-04T06:38:59.863Z,70.83
2017-11-04T06:41:38.030Z,70.06
2017-11-04T06:44:17.109Z,69.76
2017-11-04T06:47:00.584Z,70.33
2017-11-04T06:49:39.379Z,70.35
2017-11-04T06:52:20.504Z,70.59
2017-11-04T06:54:58.169Z,70.31
2017-11-04T06:57:27.140Z,69.65
2017-11-04T07:00:05.176Z,70.40
2017-11-04T07:02:41.640Z,69.69
2017-11-04T07:05:23.094Z,69.04
2017-11-04T07:07:59.533Z,69.52
2017-11-04T07:10:36.537Z,69.50
2017-11-04T07:13:14.268Z,68.36
2017-11-04T07:15:50.913Z,67.42
2017-11-04T07:18:28.570Z,66.54
2017-11-04T07:21:09.076Z,65.84
2017-11-04T07:23:46.841Z,66.30
2017-11-04T07:26:24.793Z,66.75
2017-11-04T07:29:01.958Z,66.48
2017-11-04T07:31:39.466Z,66.30
2017-11-04T07:34:17.308Z,66.50
2017-11-04T07:36:54.548Z,65.11
2017-11-04T07:39:32.547Z,65.82
2017-11-04T07:42:11.416Z,65.91
2017-11-04T07:44:47.959Z,66.01
2017-11-04T07:47:25.965Z,65.10
2017-11-04T07:50:02.892Z,63.98
2017-11-04T07:52:39.450Z,63.85
2017-11-04T07:55:15.865Z,64.19
2017-11-04T07:57:53.014Z,64.16
2017-11-04T08:03:07.254Z,63.88
2017-11-04T08:05:44.449Z,63.37
2017-11-04T08:08:21.805Z,63.01
2017-11-04T08:10:58.503Z,62.80
2017-11-04T08:13:35.765Z,63.38
2017-11-04T08:16:14.832Z,62.74
2017-11-04T08:18:55.437Z,62.89
2017-11-04T08:21:32.127Z,63.35
2017-11-04T08:24:09.327Z,63.76
2017-11-04T08:26:46.288Z,64.33
2017-11-04T08:29:25.222Z,64.09
2017-11-04T08:32:02.982Z,64.92
2017-11-04T08:34:43.869Z,65.10
2017-11-04T08:37:21.322Z,64.42
2017-11-04T08:40:01.605Z,65.86
2017-11-04T08:42:43.492Z,67.06
2017-11-04T08:45:22.186Z,67.21
2017-11-04T08:48:01.040Z,66.73
2017-11-04T08:50:39.405Z,64.99
2017-11-04T08:53:16.431Z,64.36
2017-11-04T08:55:54.632Z,64.35
2017-11-04T08:58:23.860Z,63.87
2017-11-04T09:01:04.294Z,60.09
2017-11-04T09:03:42.299Z,62.76
2017-11-04T09:06:23.845Z,62.43
2017-11-04T09:09:01.806Z,60.75
2017-11-04T09:11:41.464Z,61.23
2017-11-04T09:14:18.747Z,62.15
2017-11-04T09:16:56.909Z,61.45
2017-11-04T09:19:35.144Z,61.07
2017-11-04T09:22:16.544Z,60.95
2017-11-04T09:24:53.952Z,61.44
2017-11-04T09:27:32.554Z,61.52
2017-11-04T09:30:09.012Z,61.54
2017-11-04T09:35:37.953Z,61.57
2017-11-04T09:38:16.205Z,61.29
2017-11-04T09:40:52.790Z,61.31
2017-11-04T09:43:34.173Z,61.04
2017-11-04T09:46:12.357Z,60.95
2017-11-04T09:48:49.207Z,62.19
2017-11-04T09:51:25.867Z,62.50
2017-11-04T09:54:03.717Z,62.74
2017-11-04T09:56:40.676Z,62.36
2017-11-04T09:59:21.798Z,61.76
2017-11-04T10:02:00.884Z,61.35
2017-11-04T10:04:42.908Z,61.42
2017-11-04T10:07:20.025Z,62.12
2017-11-04T10:09:57.843Z,62.01
2017-11-04T10:12:34.922Z,61.33
2017-11-04T10:15:18.740Z,61.64
2017-11-04T10:17:56.642Z,60.88
2017-11-04T10:20:34.985Z,62.10
2017-11-04T10:23:12.378Z,61.44
2017-11-04T10:25:53.695Z,59.41
2017-11-04T10:28:28.219Z,59.10
2017-11-04T10:31:11.395Z,59.21
2017-11-04T10:33:48.699Z,58.91
2017-11-04T10:36:31.052Z,60.33
2017-11-04T10:39:07.679Z,59.27
2017-11-04T10:44:34.219Z,57.05
2017-11-04T10:47:13.146Z,57.12
2017-11-04T10:49:53.948Z,53.74
2017-11-04T10:52:30.841Z,50.33
2017-11-04T10:55:09.666Z,51.18
2017-11-04T10:57:39.641Z,50.74
2017-11-04T11:00:16.727Z,50.70
2017-11-04T11:05:38.570Z,51.35
2017-11-04T11:11:06.311Z,50.67
2017-11-04T11:16:28.374Z,50.95
2017-11-04T11:19:05.106Z,50.38
2017-11-04T11:21:43.859Z,50.24
2017-11-04T11:24:20.683Z,49.38
2017-11-04T11:26:57.310Z,49.26
2017-11-04T11:29:42.017Z,49.22
2017-11-04T11:32:22.834Z,49.87
2017-11-04T11:35:05.312Z,50.68
2017-11-04T11:37:43.667Z,50.22
2017-11-04T11:40:27.648Z,53.63
2017-11-04T11:43:04.156Z,56.08
2017-11-04T11:45:41.704Z,57.15
2017-11-04T11:48:18.542Z,57.68
2017-11-04T11:50:58.744Z,58.38
2017-11-04T11:53:37.850Z,58.23
2017-11-04T11:56:15.361Z,58.61
2017-11-04T11:58:56.531Z,58.97
2017-11-04T12:01:41.517Z,58.60
2017-11-04T12:04:26.780Z,59.26
2017-11-04T12:07:03.633Z,57.96
2017-11-04T12:09:40.197Z,57.43
2017-11-04T12:12:17.340Z,57.63
2017-11-04T12:14:56.400Z,57.82
2017-11-04T12:17:35.844Z,57.70
2017-11-04T12:20:13.213Z,58.52
2017-11-04T12:23:01.605Z,58.78
2017-11-04T12:25:38.419Z,58.36
2017-11-04T12:28:16.100Z,58.43
2017-11-04T12:30:52.941Z,57.61
2017-11-04T12:33:29.889Z,57.82
2017-11-04T12:36:11.727Z,57.94
2017-11-04T12:38:49.264Z,58.99
2017-11-04T12:41:36.550Z,58.78
2017-11-04T12:44:20.653Z,59.09
2017-11-04T12:47:02.604Z,58.88
2017-11-04T12:49:44.737Z,58.38
2017-11-04T12:52:32.545Z,58.36
2017-11-04T12:55:08.898Z,59.13
2017-11-04T12:57:37.910Z,57.54
2017-11-04T13:00:19.318Z,57.22
2017-11-04T13:03:00.714Z,57.86
2017-11-04T13:05:37.199Z,57.35
2017-11-04T13:08:18.724Z,57.40
2017-11-04T13:10:57.779Z,57.38
2017-11-04T13:13:41.177Z,58.70
2017-11-04T13:16:23.910Z,58.68
2017-11-04T13:19:00.409Z,58.58
2017-11-04T13:21:41.896Z,58.18
2017-11-04T13:24:19.259Z,58.46
2017-11-04T13:27:00.364Z,58.04
2017-11-04T13:29:39.032Z,58.23
2017-11-04T13:35:11.209Z,56.03
2017-11-04T13:37:50.682Z,53.90
2017-11-04T13:40:35.893Z,53.78
2017-11-04T13:43:15.732Z,53.87
2017-11-04T13:45:52.279Z,53.97
2017-11-04T13:48:36.033Z,53.69
2017-11-04T13:51:15.036Z,53.36
2017-11-04T13:53:51.833Z,52.84
2017-11-04T13:56:30.800Z,53.20
2017-11-04T13:59:08.647Z,53.56
2017-11-04T14:01:49.609Z,53.21
2017-11-04T14:04:28.086Z,53.31
2017-11-04T14:07:13.394Z,53.40
2017-11-04T14:09:56.349Z,53.72
2017-11-04T14:12:38.096Z,54.28
2017-11-04T14:15:19.116Z,54.34
2017-11-04T14:17:55.582Z,54.67
2017-11-04T14:20:34.407Z,54.90
2017-11-04T14:23:11.135Z,54.68
2017-11-04T14:25:48.550Z,54.98
2017-11-04T14:28:25.821Z,55.05
2017-11-04T14:31:04.478Z,55.70
2017-11-04T14:33:41.286Z,56.09
2017-11-04T14:36:28.464Z,56.21
2017-11-04T14:39:11.895Z,56.35
2017-11-04T14:41:53.721Z,56.67
2017-11-04T14:44:33.007Z,56.76
2017-11-04T14:47:10.206Z,56.77
2017-11-04T14:49:52.006Z,57.14
2017-11-04T14:52:38.661Z,57.35
2017-11-04T14:55:22.316Z,57.42
2017-11-04T15:01:05.208Z,58.06
2017-11-04T15:03:53.961Z,58.74
2017-11-04T15:06:32.736Z,58.13
2017-11-04T15:09:05.670Z,59.28
2017-11-04T15:11:49.627Z,61.85
2017-11-04T15:14:26.457Z,64.96
2017-11-04T15:17:07.649Z,66.79
2017-11-04T15:19:53.351Z,71.01
2017-11-04T15:22:34.041Z,71.37
2017-11-04T15:25:11.985Z,72.68
2017-11-04T15:27:52.266Z,73.33
2017-11-04T15:30:26.402Z,72.97
2017-11-04T15:33:08.223Z,72.67
2017-11-04T15:35:49.826Z,73.03
2017-11-04T15:38:28.338Z,73.43
2017-11-04T15:43:54.097Z,72.88
2017-11-04T15:46:33.061Z,73.25
2017-11-04T15:49:10.147Z,72.62
2017-11-04T15:53:40.274Z,73.18
2017-11-04T15:56:18.320Z,72.75
2017-11-04T15:58:55.211Z,72.18
2017-11-04T16:01:32.210Z,73.47
2017-11-04T16:04:20.429Z,73.25
2017-11-04T16:07:02.472Z,73.86
2017-11-04T16:09:43.731Z,73.69
2017-11-04T16:12:33.498Z,73.21
2017-11-04T16:15:12.540Z,73.40
2017-11-04T16:17:51.065Z,72.96
2017-11-04T16:20:27.758Z,74.29
2017-11-04T16:23:20.541Z,74.50
2017-11-04T16:26:09.735Z,75.03
2017-11-04T16:28:54.228Z,75.35
2017-11-04T16:34:25.830Z,73.71
2017-11-04T16:37:04.824Z,74.04
2017-11-04T16:39:45.193Z,73.66
2017-11-04T16:42:24.906Z,74.36
2017-11-04T16:45:04.078Z,75.09
2017-11-04T16:47:48.240Z,74.83
2017-11-04T16:50:29.713Z,75.08
2017-11-04T16:53:12.159Z,75.48
2017-11-04T17:01:54.567Z,75.64
2017-11-04T17:04:41.679Z,75.98
2017-11-04T17:07:23.682Z,76.12
2017-11-04T17:15:53.698Z,76.25
2017-11-04T17:21:30.446Z,76.60
2017-11-04T17:24:12.917Z,76.19
2017-11-04T17:26:55.021Z,76.97
2017-11-04T17:35:44.629Z,77.57
2017-11-04T17:38:22.654Z,77.80
2017-11-04T17:41:09.703Z,77.69
2017-11-04T17:49:40.975Z,78.19
2017-11-04T17:52:22.795Z,78.04
2017-11-04T17:55:01.115Z,77.93
2017-11-04T17:57:49.923Z,77.90
2017-11-04T18:00:35.845Z,77.07
2017-11-04T18:03:20.588Z,77.23
2017-11-04T18:06:03.252Z,77.09
2017-11-04T18:11:44.096Z,77.01
2017-11-04T18:14:25.757Z,76.87
2017-11-04T18:17:05.654Z,76.51
2017-11-04T18:19:52.199Z,76.41
2017-11-04T18:22:35.849Z,75.65
2017-11-04T18:25:17.531Z,75.42
2017-11-04T18:27:56.308Z,75.29
2017-11-04T18:30:40.603Z,75.13
2017-11-04T18:33:18.732Z,75.22
2017-11-04T18:35:58.438Z,75.34
2017-11-04T18:38:36.842Z,75.32
2017-11-04T18:41:21.092Z,75.22
2017-11-04T18:44:02.993Z,74.74
2017-11-04T20:19:28.543Z,69.76
2017-11-04T20:21:58.805Z,69.41
2017-11-04T20:24:39.998Z,69.49
2017-11-04T20:27:18.361Z,68.89
2017-11-04T20:30:09.262Z,68.51
2017-11-04T20:35:34.680Z,68.28
2017-11-04T20:38:04.808Z,67.60
2017-11-04T20:40:47.017Z,67.37
2017-11-04T20:43:25.508Z,66.77
2017-11-04T20:46:05.951Z,66.40
2017-11-04T20:48:36.088Z,66.16
2017-11-04T20:54:08.296Z,65.99
2017-11-04T20:56:49.539Z,66.16
2017-11-04T20:59:19.662Z,65.87
2017-11-04T21:02:01.018Z,65.89
2017-11-04T21:04:45.293Z,66.17
2017-11-04T21:07:28.663Z,66.30
2017-11-04T21:10:06.496Z,66.69
2017-11-04T21:12:44.663Z,67.03
2017-11-04T21:15:24.558Z,66.82
2017-11-04T21:18:03.833Z,66.52
2017-11-04T21:20:43.995Z,66.98
2017-11-04T21:23:28.127Z,66.88
2017-11-04T21:26:08.260Z,66.89
2017-11-04T21:28:46.536Z,67.00
2017-11-04T21:31:20.041Z,67.01
2017-11-04T21:33:58.138Z,67.37
2017-11-04T21:36:38.635Z,67.12
2017-11-04T21:39:23.568Z,67.26
2017-11-04T21:42:01.871Z,67.62
2017-11-04T21:47:34.453Z,68.01
2017-11-04T21:50:16.913Z,68.16
2017-11-04T21:52:57.365Z,67.93
2017-11-04T21:55:40.855Z,68.02
2017-11-04T21:58:30.559Z,68.08
2017-11-04T22:01:15.150Z,67.89
2017-11-04T22:03:53.253Z,68.17
2017-11-04T22:06:31.786Z,68.11
2017-11-04T22:09:09.491Z,68.44
2017-11-04T22:11:52.717Z,68.43
2017-11-04T22:14:31.476Z,68.30
2017-11-04T22:17:11.835Z,68.19
2017-11-04T22:19:52.194Z,68.77
2017-11-04T22:22:32.561Z,68.86
2017-11-04T22:25:23.246Z,68.85
2017-11-04T22:28:07.033Z,69.45
2017-11-04T22:30:54.651Z,69.63
2017-11-04T22:36:30.155Z,70.30
2017-11-04T22:39:10.082Z,70.22
2017-11-04T22:41:59.641Z,70.11
2017-11-04T22:44:46.122Z,70.49
2017-11-04T22:47:29.923Z,70.31
2017-11-04T22:50:10.100Z,70.39
2017-11-04T22:52:54.228Z,70.43
2017-11-04T22:55:31.841Z,70.35
2017-11-04T23:01:34.813Z,69.75
2017-11-04T23:04:15.634Z,69.78
2017-11-04T23:06:57.448Z,69.79
2017-11-04T23:09:36.653Z,70.13
2017-11-04T23:12:21.100Z,70.08
2017-11-04T23:20:49.704Z,70.29
2017-11-04T23:23:29.831Z,70.48
2017-11-04T23:26:13.151Z,70.43
2017-11-04T23:28:56.823Z,70.38
2017-11-04T23:31:35.039Z,70.59
2017-11-04T23:34:20.077Z,70.51
2017-11-04T23:36:53.512Z,70.80
2017-11-04T23:39:39.822Z,70.86
2017-11-04T23:42:17.751Z,70.79
2017-11-04T23:44:56.183Z,71.10
2017-11-04T23:47:35.289Z,71.19
2017-11-04T23:50:21.677Z,71.54
2017-11-04T23:52:59.540Z,71.79
2017-11-04T23:55:41.793Z,71.75
2017-11-04T23:58:19.698Z,71.94
